Latest Weather Observations for Orange Airport

IDN60801

Issued at 9:32 pm EST Sunday 20 August 2017 (issued every 30 minutes, with the page automatically refreshed every 10 minutes)

About weather observations | Map of weather stations | Latest weather observations for NSW | Other Formats
Station Details ID: 063303 Name: ORANGE AIRPORT AWS Lat: -33.38 Lon: 149.13 Height: 944.65 m
Data from the previous 72 hours. | See also: Recent months at Orange Airport
Date/Time
EST
Temp
°C
App
Temp
°C
Dew
Point
°C
Rel
Hum
%
Delta-T
°C
Wind Press
QNH
hPa
Press
MSL
hPa
Rain since
9am
mm
Dir  Spd
km/h
Gust
km/h
Spd
kts
Gust
kts
20/09:30pm -0.3 -2.4 -1.1 94 0.3 CALM 0 0 0 0 1020.6 1021.4 0.0
20/09:00pm 0.0 -2.1 -1.0 93 0.4 CALM 0 0 0 0 1020.4 1021.1 0.0
20/08:30pm -0.1 -3.6 -1.2 92 0.4 E 7 7 4 4 1020.7 1021.5 0.0
20/08:00pm -0.1 -2.7 -1.8 88 0.6 SW 2 6 1 3 1020.8 1021.6 0.0
20/07:30pm 0.5 -2.1 -1.6 86 0.8 SW 2 7 1 4 1020.9 1021.7 0.0
20/07:00pm 1.1 -2.7 -1.1 85 0.8 WSW 9 13 5 7 1020.7 1021.5 0.0
20/06:30pm 3.3 0.0 0.0 79 1.3 SW 7 7 4 4 1020.2 1021.0 0.0
20/06:00pm 4.2 1.8 -0.6 71 1.9 SSW 2 6 1 3 1019.7 1020.5 0.0
20/05:30pm 6.9 3.3 0.6 64 2.6 SW 9 11 5 6 1020.0 1020.8 0.0
20/05:00pm 8.1 3.7 0.6 59 3.2 SW 13 17 7 9 1020.1 1020.9 0.0
20/04:30pm 9.7 6.1 0.9 54 3.8 SW 9 15 5 8 1020.2 1021.0 0.0
20/04:00pm 10.7 6.1 -3.7 36 5.7 NE 11 15 6 8 1019.9 1020.7 0.0
20/03:30pm 11.0 7.8 -3.5 36 5.8 NNE 4 13 2 7 1020.1 1020.9 0.0
20/03:00pm 10.6 6.4 -4.2 35 5.7 NNE 9 15 5 8 1020.2 1021.0 0.0
20/02:30pm 11.2 7.9 -4.1 34 6.0 ENE 4 9 2 5 1020.7 1021.5 0.0
20/02:00pm 11.2 8.3 -4.5 33 6.1 W 2 9 1 5 1021.0 1021.8 0.0
20/01:30pm 10.2 5.8 -5.7 32 6.0 SSE 9 15 5 8 1021.2 1022.0 0.0
20/01:00pm 10.6 6.5 -3.1 38 5.5 N 9 15 5 8 1021.7 1022.5 0.0
20/12:30pm 9.7 5.9 -3.6 39 5.2 NNE 7 15 4 8 1022.2 1023.0 0.0
20/12:00pm 8.9 4.8 -2.7 44 4.6 NNW 9 13 5 7 1022.7 1023.5 0.0
20/11:30am 9.0 5.0 -2.3 45 4.5 E 9 15 5 8 1023.0 1023.8 0.0
20/11:00am 7.8 3.0 -2.2 49 3.9 ESE 13 19 7 10 1023.2 1024.0 0.0
20/10:30am 7.4 2.7 -2.1 51 3.8 E 13 19 7 10 1023.4 1024.3 0.0
20/10:00am 5.8 1.8 -2.3 56 3.1 SSE 9 15 5 8 1023.6 1024.5 0.0
20/09:30am 4.2 -1.8 -3.1 59 2.7 SE 19 26 10 14 1024.0 1024.8 0.0
20/09:00am 2.9 -1.9 -2.6 67 2.0 SSE 13 17 7 9 1024.2 1025.1 0.0
20/08:30am 1.1 -3.0 -3.2 73 1.6 SSE 9 13 5 7 1024.1 1024.9 0.0
20/08:00am 0.2 -4.3 -3.5 76 1.3 S 11 15 6 8 1023.8 1024.6 0.0
20/07:30am -1.6 -6.2 -4.1 83 0.8 S 11 13 6 7 1023.2 1024.0 0.0
20/07:00am -3.5 -8.3 -5.6 85 0.5 SSW 11 13 6 7 1023.2 1024.0 0.0
20/06:30am -3.6 -8.7 -5.1 89 0.3 S 13 13 7 7 1022.5 1023.4 0.0
20/06:00am -4.2 -9.0 -5.6 90 0.3 SSW 11 13 6 7 1022.4 1023.3 0.0
20/05:30am -3.1 -8.1 -4.4 91 0.3 S 13 15 7 8 1022.2 1023.0 0.0
20/05:00am -2.5 -7.8 -3.8 91 0.3 SSW 15 15 8 8 1022.2 1023.0 0.0
20/04:30am -2.0 -6.9 -3.6 89 0.5 SSW 13 17 7 9 1022.3 1023.2 0.0
20/04:00am -2.3 -6.8 -3.3 93 0.2 SSW 11 13 6 7 1022.1 1022.9 0.0
20/03:30am -2.4 -6.9 -3.4 93 0.2 SW 11 13 6 7 1022.0 1022.8 0.0
20/03:00am -2.4 -6.9 -3.1 95 0.1 SW 11 13 6 7 1022.0 1022.8 0.0
20/02:30am -2.0 -6.9 -3.1 92 0.3 SW 13 15 7 8 1021.9 1022.7 0.0
20/02:00am -1.7 -6.2 -3.0 91 0.4 SSW 11 15 6 8 1022.1 1022.9 0.0
20/01:30am -1.4 -5.8 -2.5 92 0.3 SSW 11 15 6 8 1022.1 1022.9 0.0
20/01:00am -1.7 -6.1 -2.8 92 0.3 SSW 11 13 6 7 1022.1 1022.9 0.0
20/12:30am -1.5 -5.9 -2.6 92 0.3 SW 11 15 6 8 1022.2 1023.0 0.0
20/12:00am -1.4 -5.8 -2.5 92 0.3 SSW 11 13 6 7 1022.3 1023.2 0.0
 
Date/Time
EST
Temp
°C
App
Temp
°C
Dew
Point
°C
Rel
Hum
%
Delta-T
°C
Wind Press
QNH
hPa
Press
MSL
hPa
Rain since
9am
mm
Dir  Spd
km/h
Gust
km/h
Spd
kts
Gust
kts
19/11:30pm -0.6 -5.3 -2.0 90 0.5 SW 13 17 7 9 1022.4 1023.3 0.0
19/11:00pm -0.1 -5.6 -1.8 88 0.6 SW 17 20 9 11 1022.3 1023.2 0.0
19/10:30pm 0.1 -5.3 -1.5 89 0.6 SW 17 20 9 11 1022.3 1023.2 0.0
19/10:00pm -0.4 -5.5 -2.1 88 0.6 SW 15 17 8 9 1022.4 1023.3 0.0
19/09:30pm 0.2 -4.9 -1.7 87 0.7 SW 15 17 8 9 1022.7 1023.5 0.0
19/09:00pm 0.3 -5.1 -1.4 88 0.6 SW 17 20 9 11 1022.8 1023.6 0.0
19/08:30pm 0.5 -4.5 -1.3 88 0.7 SW 15 19 8 10 1022.7 1023.5 0.0
19/08:00pm 0.5 -4.5 -1.4 87 0.7 SW 15 20 8 11 1022.5 1023.4 0.0
19/07:30pm 1.0 -4.4 -1.2 85 0.8 SW 17 24 9 13 1022.2 1023.0 0.0
19/07:00pm 1.5 -4.4 -0.9 84 0.9 SW 20 26 11 14 1021.7 1022.5 0.0
19/06:30pm 1.3 -4.1 -1.6 81 1.1 SW 17 20 9 11 1021.3 1022.1 0.0
19/06:00pm 2.1 -3.9 -1.3 78 1.3 SW 20 26 11 14 1021.1 1021.9 0.0
19/05:30pm 3.0 -2.9 -0.6 77 1.4 SW 20 33 11 18 1020.8 1021.6 0.0
19/05:00pm 3.7 -3.0 -1.3 70 1.9 SW 24 37 13 20 1020.5 1021.2 0.0
19/04:30pm 4.3 -1.9 -0.3 72 1.8 SW 22 32 12 17 1020.4 1021.1 0.0
19/04:00pm 3.9 -3.6 -1.1 70 1.9 SSW 28 41 15 22 1020.2 1021.0 0.0
19/03:30pm 5.0 -2.4 -0.8 66 2.3 SW 28 37 15 20 1019.7 1020.5 0.0
19/03:00pm 5.2 -2.9 -0.6 66 2.3 SW 32 41 17 22 1019.6 1020.3 0.0
19/02:30pm 5.2 -2.2 -0.6 66 2.3 SSW 28 39 15 21 1019.5 1020.2 0.0
19/02:00pm 5.3 -1.4 -1.2 63 2.6 SSW 24 35 13 19 1019.7 1020.5 0.0
19/01:30pm 4.4 -2.3 -1.0 68 2.1 SSW 24 35 13 19 1019.8 1020.6 0.0
19/01:00pm 4.1 -3.0 -1.1 69 2.0 SSW 26 35 14 19 1019.5 1020.2 0.0
19/12:30pm 4.1 -3.3 -0.7 71 1.9 SSW 28 35 15 19 1019.8 1020.6 0.0
19/12:00pm 3.3 -3.8 -1.3 72 1.8 SSW 26 35 14 19 1019.8 1020.6 0.0
19/11:30am 3.2 -3.5 -1.2 73 1.7 SSW 24 35 13 19 1019.9 1020.7 0.0
19/11:14am 2.5 -5.5 -2.0 72 1.7 SSW 30 43 16 23 1020.0 1020.8 0.0
19/11:00am 3.3 -4.4 -0.3 77 1.4 SW 30 41 16 22 1019.9 1020.7 0.0
19/10:30am 2.6 -4.8 -0.7 79 1.3 SSW 28 44 15 24 1019.8 1020.6 0.0
19/10:00am 2.2 -6.4 0.3 87 0.8 SW 35 52 19 28 1019.1 1019.9 0.0
19/09:30am 1.5 -6.8 -0.4 87 0.7 SW 33 46 18 25 1019.1 1019.9 0.0
19/09:00am 0.8 -7.3 -0.5 91 0.5 SW 32 46 17 25 1019.0 1019.8 3.8
19/08:30am 1.1 -7.2 -0.4 90 0.6 SW 33 46 18 25 1018.4 1019.1 3.8
19/08:00am 0.4 -7.4 -0.6 93 0.4 SSW 30 43 16 23 1018.6 1019.3 3.8
19/07:30am 0.1 -8.0 -0.6 95 0.3 SW 32 41 17 22 1017.9 1018.7 3.8
19/07:00am 0.0 -8.1 -0.6 96 0.2 SW 32 44 17 24 1017.7 1018.4 3.8
19/06:30am -0.1 -7.1 -0.5 97 0.1 SW 26 35 14 19 1017.5 1018.2 3.8
19/06:00am 0.1 -8.2 -0.5 96 0.2 SW 33 48 18 26 1017.0 1017.7 3.8
19/05:30am 0.4 -8.7 -0.5 94 0.3 SW 37 50 20 27 1016.5 1017.2 3.8
19/05:22am 0.4 -7.7 -0.3 95 0.3 SW 32 50 17 27 1016.6 1017.3 3.8
19/05:00am 0.6 -7.5 -0.1 95 0.3 SW 32 41 17 22 1016.4 1017.1 3.8
19/04:30am 0.7 -7.0 -0.4 92 0.4 SW 30 39 16 21 1016.4 1017.1 3.8
19/04:00am 0.6 -8.1 -0.4 93 0.4 SW 35 43 19 23 1016.3 1017.0 3.8
19/03:30am 0.8 -6.9 -0.1 94 0.3 WSW 30 39 16 21 1016.0 1016.7 3.8
19/03:00am 0.8 -6.5 0.1 95 0.3 SW 28 35 15 19 1016.2 1016.9 3.8
19/02:30am 1.0 -7.1 -0.1 92 0.4 WSW 32 44 17 24 1016.3 1017.0 3.8
19/02:06am 1.1 -6.6 0.1 93 0.4 WSW 30 48 16 26 1016.4 1017.1 3.8
19/02:00am 1.1 -7.2 -0.1 92 0.5 WSW 33 48 18 26 1016.3 1017.0 3.8
19/01:30am 1.2 -6.9 0.0 92 0.5 WSW 32 44 17 24 1016.5 1017.2 3.8
19/01:00am 1.5 -6.5 0.3 92 0.5 WSW 32 43 17 23 1016.6 1017.3 3.8
19/12:30am 1.8 -6.2 0.6 92 0.5 SW 32 46 17 25 1016.5 1017.2 3.8
19/12:00am 1.9 -6.1 0.6 91 0.5 SW 32 41 17 22 1016.5 1017.2 3.8
 
Date/Time
EST
Temp
°C
App
Temp
°C
Dew
Point
°C
Rel
Hum
%
Delta-T
°C
Wind Press
QNH
hPa
Press
MSL
hPa
Rain since
9am
mm
Dir  Spd
km/h
Gust
km/h
Spd
kts
Gust
kts
18/11:30pm 2.0 -6.0 0.5 90 0.6 WSW 32 43 17 23 1016.5 1017.2 3.8
18/11:00pm 2.1 -6.5 0.2 87 0.7 WSW 35 46 19 25 1016.5 1017.2 3.8
18/10:30pm 2.4 -7.0 0.1 85 0.9 WSW 39 50 21 27 1016.6 1017.3 3.8
18/10:00pm 2.6 -5.9 0.7 87 0.8 WSW 35 48 19 26 1016.7 1017.4 3.8
18/09:30pm 2.9 -6.0 0.6 85 0.9 WSW 37 50 20 27 1016.6 1017.3 3.8
18/09:13pm 3.1 -5.8 0.7 84 1.0 WSW 37 59 20 32 1016.5 1017.2 3.8
18/09:10pm 3.1 -5.8 0.8 85 0.9 WSW 37 50 20 27 1016.6 1017.3 3.8
18/09:00pm 3.2 -5.7 0.8 84 1.0 WSW 37 50 20 27 1016.5 1017.2 3.8
18/08:40pm 3.2 -5.3 0.8 84 1.0 WSW 35 54 19 29 1016.4 1017.1 3.8
18/08:30pm 3.3 -4.8 0.9 84 1.0 WSW 33 48 18 26 1016.3 1017.0 3.8
18/08:00pm 3.6 -4.5 0.8 82 1.1 WSW 33 46 18 25 1016.1 1016.8 3.8
18/07:30pm 3.7 -4.8 0.9 82 1.1 WSW 35 54 19 29 1015.9 1016.5 3.8
18/07:04pm 3.9 -5.7 0.9 81 1.2 WSW 41 59 22 32 1015.3 1016.0 3.8
18/07:00pm 4.0 -6.0 0.9 80 1.3 W 43 59 23 32 1015.0 1015.6 3.8
18/06:30pm 3.9 -4.2 1.3 83 1.1 WSW 33 46 18 25 1015.0 1015.6 3.8
18/06:00pm 3.8 -4.2 1.5 85 1.0 W 33 46 18 25 1014.7 1015.3 3.8
18/05:55pm 3.7 -4.1 1.6 86 0.9 W 32 44 17 24 1014.5 1015.2 3.8
18/05:33pm 3.6 -4.4 1.8 88 0.8 WSW 33 46 18 25 1014.7 1015.3 3.8
18/05:30pm 3.6 -4.4 1.8 88 0.8 WSW 33 46 18 25 1014.5 1015.2 3.8
18/05:01pm 3.7 -4.7 1.6 86 0.9 WSW 35 52 19 28 1014.0 1014.6 3.8
18/05:00pm 3.6 -4.8 1.6 87 0.8 WSW 35 52 19 28 1013.9 1014.5 3.8
18/04:33pm 3.3 -4.5 2.0 91 0.5 WSW 32 50 17 27 1014.0 1014.6 3.8
18/04:30pm 3.2 -4.6 1.9 91 0.5 WSW 32 43 17 23 1013.9 1014.5 3.8
18/04:08pm 3.2 -5.2 1.7 90 0.6 WSW 35 54 19 29 1013.6 1014.2 3.4
18/04:00pm 3.4 -4.9 2.2 92 0.5 W 35 52 19 28 1013.4 1014.1 3.4
18/03:53pm 3.4 -4.5 2.2 92 0.5 W 33 52 18 28 1013.2 1013.9 3.4
18/03:52pm 3.4 -4.3 2.2 92 0.5 W 32 44 17 24 1013.2 1013.9 3.4
18/03:36pm 2.2 -7.1 0.9 91 0.5 WSW 39 59 21 32 1013.2 1013.9 3.4
18/03:33pm 2.3 -7.4 0.5 88 0.7 WSW 41 59 22 32 1013.3 1014.0 3.0
18/03:32pm 2.9 -6.7 1.1 88 0.7 WSW 41 59 22 32 1013.3 1014.0 2.8
18/03:30pm 3.4 -5.8 1.3 86 0.9 WSW 39 52 21 28 1013.1 1013.7 2.6
18/03:00pm 4.6 -3.2 2.6 87 0.9 W 33 57 18 31 1012.6 1013.2 2.4
18/02:58pm 4.8 -2.7 3.3 90 0.7 W 32 52 17 28 1012.7 1013.3 2.4
18/02:56pm 4.6 -2.5 3.6 93 0.4 W 30 44 16 24 1012.4 1013.0 2.4
18/02:34pm 3.0 -5.1 1.2 88 0.7 WSW 33 44 18 24 1012.6 1013.2 1.8
18/02:33pm 3.0 -5.5 1.2 88 0.7 WSW 35 44 19 24 1012.5 1013.1 1.8
18/02:30pm 3.8 -4.5 2.2 89 0.7 W 35 48 19 26 1012.5 1013.1 1.4
18/02:15pm 4.4 -3.3 3.2 92 0.5 W 33 56 18 30 1012.5 1013.1 1.4
18/02:04pm 3.3 -5.4 2.3 93 0.4 WSW 37 48 20 26 1012.7 1013.3 1.4
18/02:00pm 3.1 -6.0 1.9 92 0.5 WSW 39 54 21 29 1012.6 1013.2 1.4
18/01:52pm 2.9 -7.0 1.7 92 0.5 WSW 43 56 23 30 1012.5 1013.1 1.4
18/01:51pm 2.8 -7.1 1.5 91 0.5 WSW 43 56 23 30 1012.5 1013.1 1.4
18/01:39pm 3.3 -6.7 2.0 91 0.5 W 44 63 24 34 1012.6 1013.2 1.2
18/01:37pm 2.9 -7.6 1.3 89 0.7 W 46 63 25 34 1012.6 1013.2 1.0
18/01:34pm 3.4 -6.7 1.4 87 0.8 W 44 63 24 34 1012.5 1013.1 1.0
18/01:30pm 4.1 -6.3 1.8 85 1.0 W 46 61 25 33 1012.5 1013.1 1.0
18/01:00pm 4.0 -5.1 2.0 87 0.8 WSW 39 63 21 34 1012.6 1013.2 1.0
18/12:55pm 4.7 -4.2 2.9 88 0.8 W 39 61 21 33 1012.4 1013.0 1.0
18/12:51pm 4.5 -4.5 2.5 87 0.9 WSW 39 54 21 29 1012.4 1013.0 1.0
18/12:47pm 4.6 -4.4 2.5 86 0.9 WSW 39 54 21 29 1012.5 1013.1 1.0
18/12:31pm 4.5 -4.4 3.0 90 0.7 WSW 39 57 21 31 1012.6 1013.2 1.0
18/12:30pm 4.4 -4.9 2.8 89 0.7 WSW 41 57 22 31 1012.6 1013.2 1.0
18/12:18pm 4.0 -4.5 3.1 94 0.4 W 37 56 20 30 1012.9 1013.5 1.0
18/12:04pm 4.1 -4.4 2.9 92 0.5 WSW 37 56 20 30 1012.8 1013.4 0.8
18/12:00pm 3.5 -4.8 1.9 89 0.7 WSW 35 50 19 27 1013.0 1013.6 0.8
18/11:42am 4.4 -3.7 3.2 92 0.5 WSW 35 50 19 27 1013.0 1013.6 0.6
18/11:32am 3.4 -4.5 2.4 93 0.4 WSW 33 46 18 25 1013.1 1013.7 0.6
18/11:30am 3.1 -5.3 1.8 91 0.5 WSW 35 48 19 26 1013.1 1013.7 0.6
18/11:16am 4.2 -4.6 3.5 95 0.3 W 39 57 21 31 1013.0 1013.6 0.4
18/11:00am 4.5 -5.2 3.0 90 0.7 WSW 43 54 23 29 1013.2 1013.9 0.2
18/10:40am 4.4 -5.0 2.6 88 0.8 W 41 63 22 34 1013.1 1013.7 0.2
18/10:30am 3.8 -6.1 1.8 87 0.8 W 43 57 23 31 1013.1 1013.7 0.2
18/10:03am 3.1 -6.8 1.5 89 0.7 WSW 43 61 23 33 1013.1 1013.7 0.2
18/10:00am 3.1 -7.0 1.3 88 0.7 WSW 44 61 24 33 1013.0 1013.6 0.2
18/09:56am 3.2 -6.3 1.6 89 0.7 WSW 41 61 22 33 1013.0 1013.6 0.2
18/09:42am 2.5 -6.3 1.2 91 0.5 W 37 63 20 34 1012.9 1013.5 0.2
18/09:30am 3.1 -6.0 1.8 91 0.5 WSW 39 57 21 31 1012.8 1013.4 0.0
18/09:13am 3.3 -6.6 1.8 90 0.6 W 43 61 23 33 1012.7 1013.3 0.0
18/09:11am 3.3 -6.6 1.7 89 0.7 W 43 61 23 33 1012.7 1013.3 0.0
18/09:00am 3.4 -6.7 1.6 88 0.7 W 44 63 24 34 1012.7 1013.3 5.0
18/08:30am 3.0 -6.9 1.4 89 0.7 WSW 43 61 23 33 1012.4 1013.0 4.8
18/08:25am 2.8 -7.2 1.2 89 0.7 WSW 43 61 23 33 1012.5 1013.1 4.8
18/08:00am 2.6 -7.4 1.1 90 0.6 WSW 43 63 23 34 1012.2 1012.8 4.6
18/07:33am 2.7 -5.8 0.9 88 0.7 WSW 35 54 19 29 1011.9 1012.5 4.6
18/07:30am 2.6 -6.2 1.1 90 0.6 WSW 37 50 20 27 1011.9 1012.5 4.6
18/07:16am 2.7 -6.2 0.9 88 0.7 W 37 52 20 28 1011.8 1012.4 4.6
18/07:09am 2.7 -6.2 0.9 88 0.7 WSW 37 56 20 30 1011.6 1012.2 4.6
18/07:08am 2.7 -6.6 0.9 88 0.7 WSW 39 56 21 30 1011.6 1012.2 4.6
18/07:00am 2.6 -7.4 1.1 90 0.6 WSW 43 61 23 33 1011.6 1012.2 4.6
18/06:33am 2.9 -7.2 1.6 91 0.5 WSW 44 63 24 34 1011.1 1011.7 4.4
18/06:30am 2.9 -7.0 1.6 91 0.5 WSW 43 59 23 32 1011.0 1011.6 4.4
18/06:26am 3.1 -5.6 1.8 91 0.5 WSW 37 56 20 30 1011.0 1011.6 4.4
18/06:00am 3.2 -6.3 2.0 92 0.5 WSW 41 56 22 30 1010.7 1011.3 4.0
18/05:40am 3.3 -5.0 2.1 92 0.5 W 35 56 19 30 1010.6 1011.2 3.8
18/05:30am 3.4 -5.3 2.1 91 0.5 W 37 52 20 28 1010.5 1011.0 3.6
18/05:00am 3.3 -5.4 2.1 92 0.5 W 37 57 20 31 1010.4 1010.9 3.6
18/04:58am 3.4 -5.7 2.1 91 0.5 W 39 57 21 31 1010.5 1011.0 3.6
18/04:44am 3.3 -5.8 2.0 91 0.5 W 39 48 21 26 1010.5 1011.0 3.6
18/04:30am 3.4 -5.7 1.9 90 0.6 W 39 50 21 27 1010.5 1011.0 3.2
18/04:25am 3.5 -5.6 1.9 89 0.7 WSW 39 52 21 28 1010.4 1010.9 3.2
18/04:00am 3.4 -5.2 2.5 94 0.4 WSW 37 52 20 28 1010.4 1010.9 3.2
18/03:45am 3.5 -5.1 2.6 94 0.4 WSW 37 48 20 26 1010.5 1011.0 2.6
18/03:30am 3.2 -6.2 2.3 94 0.4 WSW 41 56 22 30 1010.5 1011.0 2.0
18/03:26am 3.4 -6.4 2.5 94 0.4 WSW 43 56 23 30 1010.6 1011.2 1.6
18/03:13am 3.7 -5.3 2.7 93 0.4 WSW 39 57 21 31 1010.3 1010.8 1.0
18/03:00am 4.1 -4.8 2.9 92 0.5 W 39 56 21 30 1010.4 1010.9 0.6
18/02:36am 4.6 -4.0 2.6 87 0.9 WSW 37 56 20 30 1010.5 1011.0 0.2
18/02:34am 4.7 -3.5 2.7 87 0.9 WSW 35 44 19 24 1010.5 1011.0 0.2
18/02:30am 4.7 -3.5 2.6 86 0.9 WSW 35 44 19 24 1010.6 1011.2 0.2
18/02:00am 4.6 -2.0 2.1 84 1.1 WSW 26 35 14 19 1010.3 1010.8 0.0
18/01:42am 4.5 -3.8 1.9 83 1.1 WSW 35 54 19 29 1010.6 1011.2 0.0
18/01:30am 4.9 -5.1 0.9 75 1.7 WSW 43 59 23 32 1010.9 1011.5 0.0
18/01:14am 7.7 -1.4 -0.8 55 3.5 W 37 56 20 30 1010.1 1010.6 0.0
18/01:00am 8.2 -0.9 -0.5 54 3.6 W 37 50 20 27 1010.4 1010.9 0.0
18/12:30am 8.1 -0.7 -1.1 52 3.8 W 35 57 19 31 1010.4 1010.9 0.0
18/12:00am 8.4 0.1 -2.0 48 4.2 W 32 50 17 27 1010.6 1011.2 0.0
 
Date/Time
EST
Temp
°C
App
Temp
°C
Dew
Point
°C
Rel
Hum
%
Delta-T
°C
Wind Press
QNH
hPa
Press
MSL
hPa
Rain since
9am
mm
Dir  Spd
km/h
Gust
km/h
Spd
kts
Gust
kts
17/11:55pm 8.6 0.2 -2.1 47 4.3 W 32 50 17 27 1010.5 1011.0 0.0
17/11:30pm 8.8 -0.6 -2.8 44 4.6 WNW 37 52 20 28 1010.6 1011.2 0.0
17/11:12pm 9.0 -0.8 -2.9 43 4.7 WNW 39 57 21 31 1010.6 1011.2 0.0
17/11:00pm 8.8 -0.2 -3.1 43 4.7 WNW 35 44 19 24 1010.8 1011.4 0.0
17/10:30pm 8.5 0.4 -3.0 44 4.5 W 30 41 16 22 1011.1 1011.7 0.0
17/10:00pm 8.7 0.0 -3.2 43 4.7 W 33 46 18 25 1011.3 1011.8 0.0

Other Formats:

Comma delimited format used in spreadsheet applications
http://www.bom.gov.au/fwo/IDN60801/IDN60801.95726.axf

JavaScript Object Notation format (JSON) in row-major order
http://www.bom.gov.au/fwo/IDN60801/IDN60801.95726.json